sensor_id;sensor_type;location;lat;lon;timestamp;P1;durP1;ratioP1;P2;durP2;ratioP2
42198;SDS011;27868;45.184;5.786;2023-02-18T00:02:05;23.75;;;12.13;;
42198;SDS011;27868;45.184;5.786;2023-02-18T00:04:49;21.35;;;10.35;;
42198;SDS011;27868;45.184;5.786;2023-02-18T00:07:37;19.48;;;7.75;;
42198;SDS011;27868;45.184;5.786;2023-02-18T00:10:23;15.00;;;6.05;;
42198;SDS011;27868;45.184;5.786;2023-02-18T00:13:07;12.95;;;5.90;;
42198;SDS011;27868;45.184;5.786;2023-02-18T00:15:52;15.30;;;6.68;;
42198;SDS011;27868;45.184;5.786;2023-02-18T00:18:37;11.48;;;6.68;;
42198;SDS011;27868;45.184;5.786;2023-02-18T00:21:22;15.23;;;7.25;;
42198;SDS011;27868;45.184;5.786;2023-02-18T00:24:08;14.45;;;6.15;;
42198;SDS011;27868;45.184;5.786;2023-02-18T00:26:53;10.40;;;5.38;;
42198;SDS011;27868;45.184;5.786;2023-02-18T00:29:37;12.85;;;5.40;;
42198;SDS011;27868;45.184;5.786;2023-02-18T00:32:22;12.70;;;5.70;;
42198;SDS011;27868;45.184;5.786;2023-02-18T00:35:06;15.82;;;7.93;;
42198;SDS011;27868;45.184;5.786;2023-02-18T00:37:51;16.80;;;9.30;;
42198;SDS011;27868;45.184;5.786;2023-02-18T00:40:38;20.67;;;10.85;;
42198;SDS011;27868;45.184;5.786;2023-02-18T00:43:23;23.40;;;10.63;;
42198;SDS011;27868;45.184;5.786;2023-02-18T00:46:09;22.33;;;10.45;;
42198;SDS011;27868;45.184;5.786;2023-02-18T00:48:55;21.70;;;10.95;;
42198;SDS011;27868;45.184;5.786;2023-02-18T00:51:40;22.60;;;10.57;;
42198;SDS011;27868;45.184;5.786;2023-02-18T00:54:25;17.92;;;10.15;;
42198;SDS011;27868;45.184;5.786;2023-02-18T00:57:10;26.92;;;11.65;;
42198;SDS011;27868;45.184;5.786;2023-02-18T00:59:54;20.83;;;10.38;;
42198;SDS011;27868;45.184;5.786;2023-02-18T01:02:39;19.50;;;10.57;;
42198;SDS011;27868;45.184;5.786;2023-02-18T01:05:24;23.15;;;10.68;;
42198;SDS011;27868;45.184;5.786;2023-02-18T01:08:08;21.02;;;11.00;;
42198;SDS011;27868;45.184;5.786;2023-02-18T01:10:54;23.15;;;11.50;;
42198;SDS011;27868;45.184;5.786;2023-02-18T01:13:41;26.58;;;11.10;;
42198;SDS011;27868;45.184;5.786;2023-02-18T01:16:26;26.33;;;12.30;;
42198;SDS011;27868;45.184;5.786;2023-02-18T01:19:11;18.38;;;10.50;;
42198;SDS011;27868;45.184;5.786;2023-02-18T01:21:55;20.88;;;11.32;;
42198;SDS011;27868;45.184;5.786;2023-02-18T01:24:42;24.75;;;12.23;;
42198;SDS011;27868;45.184;5.786;2023-02-18T01:27:26;23.00;;;11.85;;
42198;SDS011;27868;45.184;5.786;2023-02-18T01:30:11;25.15;;;11.90;;
42198;SDS011;27868;45.184;5.786;2023-02-18T01:32:58;27.85;;;13.05;;
42198;SDS011;27868;45.184;5.786;2023-02-18T01:35:43;29.30;;;13.02;;
42198;SDS011;27868;45.184;5.786;2023-02-18T01:38:28;24.27;;;12.13;;
42198;SDS011;27868;45.184;5.786;2023-02-18T01:41:12;28.30;;;11.88;;
42198;SDS011;27868;45.184;5.786;2023-02-18T01:44:14;25.95;;;12.35;;
42198;SDS011;27868;45.184;5.786;2023-02-18T01:47:01;24.85;;;12.75;;
42198;SDS011;27868;45.184;5.786;2023-02-18T01:49:46;21.83;;;11.98;;
42198;SDS011;27868;45.184;5.786;2023-02-18T01:52:34;26.33;;;11.70;;
42198;SDS011;27868;45.184;5.786;2023-02-18T01:55:19;22.13;;;11.40;;
42198;SDS011;27868;45.184;5.786;2023-02-18T01:58:04;21.63;;;11.10;;
42198;SDS011;27868;45.184;5.786;2023-02-18T02:00:49;22.40;;;11.77;;
42198;SDS011;27868;45.184;5.786;2023-02-18T02:03:34;22.92;;;11.52;;
42198;SDS011;27868;45.184;5.786;2023-02-18T02:06:20;22.30;;;11.20;;
42198;SDS011;27868;45.184;5.786;2023-02-18T02:09:06;22.17;;;11.20;;
42198;SDS011;27868;45.184;5.786;2023-02-18T02:18:04;24.60;;;11.57;;
42198;SDS011;27868;45.184;5.786;2023-02-18T02:27:20;20.10;;;10.10;;
42198;SDS011;27868;45.184;5.786;2023-02-18T02:33:50;21.13;;;11.15;;
42198;SDS011;27868;45.184;5.786;2023-02-18T02:36:42;20.35;;;10.18;;
42198;SDS011;27868;45.184;5.786;2023-02-18T02:39:37;23.25;;;10.68;;
42198;SDS011;27868;45.184;5.786;2023-02-18T02:42:48;22.75;;;12.02;;
42198;SDS011;27868;45.184;5.786;2023-02-18T02:46:02;21.75;;;11.07;;
42198;SDS011;27868;45.184;5.786;2023-02-18T02:51:34;28.48;;;12.38;;
42198;SDS011;27868;45.184;5.786;2023-02-18T02:54:32;24.60;;;11.35;;
42198;SDS011;27868;45.184;5.786;2023-02-18T03:00:03;20.10;;;11.30;;
42198;SDS011;27868;45.184;5.786;2023-02-18T03:12:02;22.95;;;11.70;;
42198;SDS011;27868;45.184;5.786;2023-02-18T03:15:01;26.63;;;12.57;;
42198;SDS011;27868;45.184;5.786;2023-02-18T03:18:20;22.20;;;11.52;;
42198;SDS011;27868;45.184;5.786;2023-02-18T03:24:15;19.75;;;10.95;;
42198;SDS011;27868;45.184;5.786;2023-02-18T03:27:19;21.38;;;11.48;;
42198;SDS011;27868;45.184;5.786;2023-02-18T03:30:12;29.77;;;13.73;;
42198;SDS011;27868;45.184;5.786;2023-02-18T03:33:20;25.95;;;12.30;;
42198;SDS011;27868;45.184;5.786;2023-02-18T03:36:09;23.48;;;12.88;;
42198;SDS011;27868;45.184;5.786;2023-02-18T03:39:17;23.55;;;11.88;;
42198;SDS011;27868;45.184;5.786;2023-02-18T03:42:02;25.75;;;12.98;;
42198;SDS011;27868;45.184;5.786;2023-02-18T03:44:47;23.88;;;12.77;;
42198;SDS011;27868;45.184;5.786;2023-02-18T03:47:31;25.15;;;12.57;;
42198;SDS011;27868;45.184;5.786;2023-02-18T03:50:16;20.77;;;12.27;;
42198;SDS011;27868;45.184;5.786;2023-02-18T03:53:01;22.67;;;12.18;;
42198;SDS011;27868;45.184;5.786;2023-02-18T03:55:45;21.98;;;11.77;;
42198;SDS011;27868;45.184;5.786;2023-02-18T03:58:30;23.50;;;11.63;;
42198;SDS011;27868;45.184;5.786;2023-02-18T04:01:15;23.70;;;12.02;;
42198;SDS011;27868;45.184;5.786;2023-02-18T04:03:59;19.98;;;11.20;;
42198;SDS011;27868;45.184;5.786;2023-02-18T04:06:46;26.13;;;11.57;;
42198;SDS011;27868;45.184;5.786;2023-02-18T04:09:30;22.33;;;11.75;;
42198;SDS011;27868;45.184;5.786;2023-02-18T04:12:15;24.42;;;12.40;;
42198;SDS011;27868;45.184;5.786;2023-02-18T04:14:59;21.02;;;11.65;;
42198;SDS011;27868;45.184;5.786;2023-02-18T04:17:43;21.40;;;11.88;;
42198;SDS011;27868;45.184;5.786;2023-02-18T04:20:28;23.67;;;13.73;;
42198;SDS011;27868;45.184;5.786;2023-02-18T04:23:13;23.20;;;11.85;;
42198;SDS011;27868;45.184;5.786;2023-02-18T04:25:58;26.92;;;13.05;;
42198;SDS011;27868;45.184;5.786;2023-02-18T04:28:42;21.33;;;12.43;;
42198;SDS011;27868;45.184;5.786;2023-02-18T04:31:27;30.38;;;12.65;;
42198;SDS011;27868;45.184;5.786;2023-02-18T04:34:12;30.30;;;13.63;;
42198;SDS011;27868;45.184;5.786;2023-02-18T04:36:57;25.30;;;12.48;;
42198;SDS011;27868;45.184;5.786;2023-02-18T04:39:42;26.58;;;13.32;;
42198;SDS011;27868;45.184;5.786;2023-02-18T04:42:26;19.63;;;11.95;;
42198;SDS011;27868;45.184;5.786;2023-02-18T04:45:11;28.13;;;12.82;;
42198;SDS011;27868;45.184;5.786;2023-02-18T04:47:56;22.33;;;12.30;;
42198;SDS011;27868;45.184;5.786;2023-02-18T04:50:40;24.50;;;12.82;;
42198;SDS011;27868;45.184;5.786;2023-02-18T04:53:26;25.15;;;12.32;;
42198;SDS011;27868;45.184;5.786;2023-02-18T04:56:11;22.05;;;12.00;;
42198;SDS011;27868;45.184;5.786;2023-02-18T04:58:56;22.10;;;11.63;;
42198;SDS011;27868;45.184;5.786;2023-02-18T05:01:41;23.65;;;11.02;;
42198;SDS011;27868;45.184;5.786;2023-02-18T05:04:25;21.25;;;11.63;;
42198;SDS011;27868;45.184;5.786;2023-02-18T05:07:10;20.58;;;11.35;;
42198;SDS011;27868;45.184;5.786;2023-02-18T05:09:54;23.13;;;11.75;;
42198;SDS011;27868;45.184;5.786;2023-02-18T05:12:39;20.02;;;11.43;;
42198;SDS011;27868;45.184;5.786;2023-02-18T05:15:23;18.85;;;11.30;;
42198;SDS011;27868;45.184;5.786;2023-02-18T05:18:08;22.38;;;11.25;;
42198;SDS011;27868;45.184;5.786;2023-02-18T05:20:52;23.20;;;11.38;;
42198;SDS011;27868;45.184;5.786;2023-02-18T05:23:37;24.35;;;11.43;;
42198;SDS011;27868;45.184;5.786;2023-02-18T05:26:22;24.92;;;12.43;;
42198;SDS011;27868;45.184;5.786;2023-02-18T05:29:06;22.42;;;12.20;;
42198;SDS011;27868;45.184;5.786;2023-02-18T05:31:51;24.15;;;12.00;;
42198;SDS011;27868;45.184;5.786;2023-02-18T05:34:36;20.10;;;11.38;;
42198;SDS011;27868;45.184;5.786;2023-02-18T05:37:21;23.00;;;12.20;;
42198;SDS011;27868;45.184;5.786;2023-02-18T05:40:05;24.52;;;12.38;;
42198;SDS011;27868;45.184;5.786;2023-02-18T05:42:50;22.08;;;11.48;;
42198;SDS011;27868;45.184;5.786;2023-02-18T05:45:35;22.40;;;11.80;;
42198;SDS011;27868;45.184;5.786;2023-02-18T05:48:20;22.73;;;12.68;;
42198;SDS011;27868;45.184;5.786;2023-02-18T05:51:04;22.13;;;11.40;;
42198;SDS011;27868;45.184;5.786;2023-02-18T05:53:49;22.73;;;11.68;;
42198;SDS011;27868;45.184;5.786;2023-02-18T05:56:34;24.58;;;11.93;;
42198;SDS011;27868;45.184;5.786;2023-02-18T05:59:19;22.65;;;11.30;;
42198;SDS011;27868;45.184;5.786;2023-02-18T06:02:04;25.67;;;11.82;;
42198;SDS011;27868;45.184;5.786;2023-02-18T06:04:48;22.73;;;11.30;;
42198;SDS011;27868;45.184;5.786;2023-02-18T06:07:33;20.35;;;11.90;;
42198;SDS011;27868;45.184;5.786;2023-02-18T06:10:18;24.52;;;11.75;;
42198;SDS011;27868;45.184;5.786;2023-02-18T06:13:03;21.63;;;12.13;;
42198;SDS011;27868;45.184;5.786;2023-02-18T06:15:51;22.10;;;12.00;;
42198;SDS011;27868;45.184;5.786;2023-02-18T06:18:36;20.65;;;12.10;;
42198;SDS011;27868;45.184;5.786;2023-02-18T06:21:21;25.73;;;11.38;;
42198;SDS011;27868;45.184;5.786;2023-02-18T06:24:06;21.48;;;12.10;;
42198;SDS011;27868;45.184;5.786;2023-02-18T06:26:51;23.70;;;11.77;;
42198;SDS011;27868;45.184;5.786;2023-02-18T06:29:35;21.02;;;10.80;;
42198;SDS011;27868;45.184;5.786;2023-02-18T06:32:20;22.45;;;11.48;;
42198;SDS011;27868;45.184;5.786;2023-02-18T06:35:04;19.70;;;11.05;;
42198;SDS011;27868;45.184;5.786;2023-02-18T06:37:50;23.33;;;11.70;;
42198;SDS011;27868;45.184;5.786;2023-02-18T06:40:34;22.60;;;11.82;;
42198;SDS011;27868;45.184;5.786;2023-02-18T06:43:19;23.48;;;11.30;;
42198;SDS011;27868;45.184;5.786;2023-02-18T06:46:05;21.20;;;11.23;;
42198;SDS011;27868;45.184;5.786;2023-02-18T06:48:50;21.85;;;11.43;;
42198;SDS011;27868;45.184;5.786;2023-02-18T06:51:34;23.17;;;11.38;;
42198;SDS011;27868;45.184;5.786;2023-02-18T06:54:19;21.77;;;10.40;;
42198;SDS011;27868;45.184;5.786;2023-02-18T06:57:04;21.25;;;11.30;;
42198;SDS011;27868;45.184;5.786;2023-02-18T06:59:49;20.15;;;10.50;;
42198;SDS011;27868;45.184;5.786;2023-02-18T07:02:33;22.63;;;11.13;;
42198;SDS011;27868;45.184;5.786;2023-02-18T07:05:18;19.48;;;10.07;;
42198;SDS011;27868;45.184;5.786;2023-02-18T07:08:04;18.30;;;10.65;;
42198;SDS011;27868;45.184;5.786;2023-02-18T07:10:49;20.30;;;9.60;;
42198;SDS011;27868;45.184;5.786;2023-02-18T07:13:34;20.00;;;10.27;;
42198;SDS011;27868;45.184;5.786;2023-02-18T07:16:20;20.77;;;10.65;;
42198;SDS011;27868;45.184;5.786;2023-02-18T07:19:04;19.40;;;10.45;;
42198;SDS011;27868;45.184;5.786;2023-02-18T07:21:49;17.35;;;9.57;;
42198;SDS011;27868;45.184;5.786;2023-02-18T07:24:34;21.83;;;9.65;;
42198;SDS011;27868;45.184;5.786;2023-02-18T07:27:19;20.80;;;10.30;;
42198;SDS011;27868;45.184;5.786;2023-02-18T07:30:05;19.55;;;10.30;;
42198;SDS011;27868;45.184;5.786;2023-02-18T07:32:50;19.67;;;10.60;;
42198;SDS011;27868;45.184;5.786;2023-02-18T07:35:35;21.15;;;11.68;;
42198;SDS011;27868;45.184;5.786;2023-02-18T07:38:20;21.65;;;11.23;;
42198;SDS011;27868;45.184;5.786;2023-02-18T07:41:10;24.80;;;11.48;;
42198;SDS011;27868;45.184;5.786;2023-02-18T07:44:05;23.90;;;10.33;;
42198;SDS011;27868;45.184;5.786;2023-02-18T07:46:50;21.15;;;11.02;;
42198;SDS011;27868;45.184;5.786;2023-02-18T07:49:36;20.48;;;11.40;;
42198;SDS011;27868;45.184;5.786;2023-02-18T07:52:21;21.10;;;11.07;;
42198;SDS011;27868;45.184;5.786;2023-02-18T07:55:05;24.05;;;11.25;;
42198;SDS011;27868;45.184;5.786;2023-02-18T07:57:50;20.80;;;10.98;;
42198;SDS011;27868;45.184;5.786;2023-02-18T08:00:43;19.30;;;10.68;;
42198;SDS011;27868;45.184;5.786;2023-02-18T08:03:28;21.30;;;11.32;;
42198;SDS011;27868;45.184;5.786;2023-02-18T08:06:19;19.80;;;10.60;;
42198;SDS011;27868;45.184;5.786;2023-02-18T08:09:25;23.83;;;12.02;;
42198;SDS011;27868;45.184;5.786;2023-02-18T08:12:09;22.75;;;11.38;;
42198;SDS011;27868;45.184;5.786;2023-02-18T08:14:54;18.88;;;10.10;;
42198;SDS011;27868;45.184;5.786;2023-02-18T08:17:38;20.63;;;9.38;;
42198;SDS011;27868;45.184;5.786;2023-02-18T08:20:23;21.75;;;9.75;;
42198;SDS011;27868;45.184;5.786;2023-02-18T08:23:09;19.77;;;9.63;;
42198;SDS011;27868;45.184;5.786;2023-02-18T08:25:54;20.33;;;10.32;;
42198;SDS011;27868;45.184;5.786;2023-02-18T08:28:39;17.75;;;9.85;;
42198;SDS011;27868;45.184;5.786;2023-02-18T08:31:25;20.10;;;9.52;;
42198;SDS011;27868;45.184;5.786;2023-02-18T08:34:11;17.25;;;9.88;;
42198;SDS011;27868;45.184;5.786;2023-02-18T08:36:55;18.70;;;9.02;;
42198;SDS011;27868;45.184;5.786;2023-02-18T08:39:40;17.15;;;8.23;;
42198;SDS011;27868;45.184;5.786;2023-02-18T08:42:24;15.02;;;7.20;;
42198;SDS011;27868;45.184;5.786;2023-02-18T08:45:09;14.60;;;7.70;;
42198;SDS011;27868;45.184;5.786;2023-02-18T08:47:53;15.52;;;7.18;;
42198;SDS011;27868;45.184;5.786;2023-02-18T08:50:38;15.98;;;7.97;;
42198;SDS011;27868;45.184;5.786;2023-02-18T08:53:23;16.65;;;7.75;;
42198;SDS011;27868;45.184;5.786;2023-02-18T08:56:08;17.38;;;7.10;;
42198;SDS011;27868;45.184;5.786;2023-02-18T08:58:53;17.08;;;9.18;;
42198;SDS011;27868;45.184;5.786;2023-02-18T09:01:38;20.92;;;11.13;;
42198;SDS011;27868;45.184;5.786;2023-02-18T09:04:23;18.90;;;9.98;;
42198;SDS011;27868;45.184;5.786;2023-02-18T09:07:08;18.35;;;9.35;;
42198;SDS011;27868;45.184;5.786;2023-02-18T09:09:52;19.58;;;10.07;;
42198;SDS011;27868;45.184;5.786;2023-02-18T09:12:37;17.48;;;8.88;;
42198;SDS011;27868;45.184;5.786;2023-02-18T09:15:21;18.88;;;8.98;;
42198;SDS011;27868;45.184;5.786;2023-02-18T09:18:06;20.20;;;8.95;;
42198;SDS011;27868;45.184;5.786;2023-02-18T09:20:50;19.33;;;8.48;;
42198;SDS011;27868;45.184;5.786;2023-02-18T09:23:38;18.02;;;9.32;;
42198;SDS011;27868;45.184;5.786;2023-02-18T09:26:23;21.20;;;9.52;;
42198;SDS011;27868;45.184;5.786;2023-02-18T09:29:09;19.77;;;10.70;;
42198;SDS011;27868;45.184;5.786;2023-02-18T09:31:54;19.40;;;9.50;;
42198;SDS011;27868;45.184;5.786;2023-02-18T09:34:38;15.18;;;8.65;;
42198;SDS011;27868;45.184;5.786;2023-02-18T09:37:23;16.25;;;9.68;;
42198;SDS011;27868;45.184;5.786;2023-02-18T09:40:07;17.83;;;9.10;;
42198;SDS011;27868;45.184;5.786;2023-02-18T09:43:08;17.95;;;8.05;;
42198;SDS011;27868;45.184;5.786;2023-02-18T09:46:05;13.52;;;8.05;;
42198;SDS011;27868;45.184;5.786;2023-02-18T09:49:01;20.15;;;8.93;;
42198;SDS011;27868;45.184;5.786;2023-02-18T09:51:47;17.48;;;8.05;;
42198;SDS011;27868;45.184;5.786;2023-02-18T09:54:32;16.77;;;9.25;;
42198;SDS011;27868;45.184;5.786;2023-02-18T09:57:21;18.67;;;8.15;;
42198;SDS011;27868;45.184;5.786;2023-02-18T10:00:22;13.95;;;6.95;;
42198;SDS011;27868;45.184;5.786;2023-02-18T10:03:13;14.80;;;7.25;;
42198;SDS011;27868;45.184;5.786;2023-02-18T10:06:09;13.60;;;7.10;;
42198;SDS011;27868;45.184;5.786;2023-02-18T10:09:14;14.57;;;6.47;;
42198;SDS011;27868;45.184;5.786;2023-02-18T10:12:14;30.70;;;11.80;;
42198;SDS011;27868;45.184;5.786;2023-02-18T10:15:01;18.98;;;7.75;;
42198;SDS011;27868;45.184;5.786;2023-02-18T10:17:47;13.80;;;7.88;;
42198;SDS011;27868;45.184;5.786;2023-02-18T10:20:32;32.40;;;10.98;;
42198;SDS011;27868;45.184;5.786;2023-02-18T10:23:18;14.00;;;7.10;;
42198;SDS011;27868;45.184;5.786;2023-02-18T10:26:06;13.73;;;6.05;;
42198;SDS011;27868;45.184;5.786;2023-02-18T10:28:55;14.38;;;5.90;;
42198;SDS011;27868;45.184;5.786;2023-02-18T10:31:42;11.23;;;6.00;;
42198;SDS011;27868;45.184;5.786;2023-02-18T10:34:46;12.57;;;6.32;;
42198;SDS011;27868;45.184;5.786;2023-02-18T10:37:40;10.38;;;5.00;;
42198;SDS011;27868;45.184;5.786;2023-02-18T10:43:42;14.93;;;5.93;;
42198;SDS011;27868;45.184;5.786;2023-02-18T10:46:39;13.95;;;5.95;;
42198;SDS011;27868;45.184;5.786;2023-02-18T10:49:46;10.40;;;5.90;;
42198;SDS011;27868;45.184;5.786;2023-02-18T10:52:45;12.93;;;5.72;;
42198;SDS011;27868;45.184;5.786;2023-02-18T10:55:36;11.98;;;4.47;;
42198;SDS011;27868;45.184;5.786;2023-02-18T10:58:35;10.55;;;5.45;;
42198;SDS011;27868;45.184;5.786;2023-02-18T11:01:25;9.07;;;4.82;;
42198;SDS011;27868;45.184;5.786;2023-02-18T11:07:05;10.10;;;5.25;;
42198;SDS011;27868;45.184;5.786;2023-02-18T11:15:20;10.48;;;5.35;;
42198;SDS011;27868;45.184;5.786;2023-02-18T11:18:25;12.68;;;4.97;;
42198;SDS011;27868;45.184;5.786;2023-02-18T11:21:24;10.77;;;5.38;;
42198;SDS011;27868;45.184;5.786;2023-02-18T11:24:16;12.88;;;5.20;;
42198;SDS011;27868;45.184;5.786;2023-02-18T11:27:10;12.25;;;5.20;;
42198;SDS011;27868;45.184;5.786;2023-02-18T11:30:02;10.00;;;5.53;;
42198;SDS011;27868;45.184;5.786;2023-02-18T11:32:51;12.07;;;5.22;;
42198;SDS011;27868;45.184;5.786;2023-02-18T11:38:36;9.75;;;4.57;;
42198;SDS011;27868;45.184;5.786;2023-02-18T11:44:57;9.90;;;4.78;;
42198;SDS011;27868;45.184;5.786;2023-02-18T11:47:44;13.20;;;5.73;;
42198;SDS011;27868;45.184;5.786;2023-02-18T11:56:04;11.57;;;5.07;;
42198;SDS011;27868;45.184;5.786;2023-02-18T11:59:00;8.68;;;4.72;;
42198;SDS011;27868;45.184;5.786;2023-02-18T12:01:50;10.43;;;4.55;;
42198;SDS011;27868;45.184;5.786;2023-02-18T12:04:44;11.95;;;4.78;;
42198;SDS011;27868;45.184;5.786;2023-02-18T12:11:22;9.13;;;4.90;;
42198;SDS011;27868;45.184;5.786;2023-02-18T12:14:16;7.93;;;4.07;;
42198;SDS011;27868;45.184;5.786;2023-02-18T12:20:30;7.82;;;4.03;;
42198;SDS011;27868;45.184;5.786;2023-02-18T12:32:30;7.47;;;3.85;;
42198;SDS011;27868;45.184;5.786;2023-02-18T12:57:42;7.07;;;2.80;;
42198;SDS011;27868;45.184;5.786;2023-02-18T13:18:43;6.95;;;2.55;;
42198;SDS011;27868;45.184;5.786;2023-02-18T13:21:53;6.40;;;2.50;;
42198;SDS011;27868;45.184;5.786;2023-02-18T13:24:43;6.80;;;2.80;;
42198;SDS011;27868;45.184;5.786;2023-02-18T13:27:41;4.63;;;2.72;;
42198;SDS011;27868;45.184;5.786;2023-02-18T13:30:30;5.75;;;2.50;;
42198;SDS011;27868;45.184;5.786;2023-02-18T13:36:43;12.13;;;2.97;;
42198;SDS011;27868;45.184;5.786;2023-02-18T13:39:35;5.80;;;2.70;;
42198;SDS011;27868;45.184;5.786;2023-02-18T13:42:35;6.70;;;2.38;;
42198;SDS011;27868;45.184;5.786;2023-02-18T13:45:25;10.48;;;2.80;;
42198;SDS011;27868;45.184;5.786;2023-02-18T13:48:25;7.40;;;2.35;;
42198;SDS011;27868;45.184;5.786;2023-02-18T13:51:12;10.20;;;2.70;;
42198;SDS011;27868;45.184;5.786;2023-02-18T13:57:15;6.10;;;2.10;;
42198;SDS011;27868;45.184;5.786;2023-02-18T14:00:04;20.95;;;2.80;;
42198;SDS011;27868;45.184;5.786;2023-02-18T14:03:27;23.00;;;2.85;;
42198;SDS011;27868;45.184;5.786;2023-02-18T14:06:27;10.40;;;2.95;;
42198;SDS011;27868;45.184;5.786;2023-02-18T14:15:54;11.85;;;2.30;;
42198;SDS011;27868;45.184;5.786;2023-02-18T14:24:42;3.75;;;1.83;;
42198;SDS011;27868;45.184;5.786;2023-02-18T14:27:31;14.20;;;3.53;;
42198;SDS011;27868;45.184;5.786;2023-02-18T14:33:03;11.77;;;2.90;;
42198;SDS011;27868;45.184;5.786;2023-02-18T14:35:55;4.60;;;1.90;;
42198;SDS011;27868;45.184;5.786;2023-02-18T14:39:06;6.70;;;1.92;;
42198;SDS011;27868;45.184;5.786;2023-02-18T14:42:23;4.82;;;2.28;;
42198;SDS011;27868;45.184;5.786;2023-02-18T14:48:22;3.83;;;2.20;;
42198;SDS011;27868;45.184;5.786;2023-02-18T14:51:24;3.35;;;1.80;;
42198;SDS011;27868;45.184;5.786;2023-02-18T14:54:13;3.55;;;1.95;;
42198;SDS011;27868;45.184;5.786;2023-02-18T14:57:08;6.27;;;1.97;;
42198;SDS011;27868;45.184;5.786;2023-02-18T14:59:59;4.10;;;1.80;;
42198;SDS011;27868;45.184;5.786;2023-02-18T15:02:46;5.95;;;2.00;;
42198;SDS011;27868;45.184;5.786;2023-02-18T15:05:36;6.78;;;2.40;;
42198;SDS011;27868;45.184;5.786;2023-02-18T15:08:22;6.15;;;2.45;;
42198;SDS011;27868;45.184;5.786;2023-02-18T15:11:08;4.35;;;2.17;;
42198;SDS011;27868;45.184;5.786;2023-02-18T15:13:54;6.63;;;2.33;;
42198;SDS011;27868;45.184;5.786;2023-02-18T15:16:42;5.20;;;2.55;;
42198;SDS011;27868;45.184;5.786;2023-02-18T15:19:29;4.38;;;2.53;;
42198;SDS011;27868;45.184;5.786;2023-02-18T15:22:31;5.65;;;2.50;;
42198;SDS011;27868;45.184;5.786;2023-02-18T15:25:18;5.90;;;2.30;;
42198;SDS011;27868;45.184;5.786;2023-02-18T15:28:03;8.35;;;3.35;;
42198;SDS011;27868;45.184;5.786;2023-02-18T15:30:48;4.85;;;2.60;;
42198;SDS011;27868;45.184;5.786;2023-02-18T15:33:33;5.35;;;2.20;;
42198;SDS011;27868;45.184;5.786;2023-02-18T15:36:18;4.45;;;2.10;;
42198;SDS011;27868;45.184;5.786;2023-02-18T15:39:03;6.88;;;2.40;;
42198;SDS011;27868;45.184;5.786;2023-02-18T15:41:58;5.00;;;2.33;;
42198;SDS011;27868;45.184;5.786;2023-02-18T15:44:46;8.50;;;2.50;;
42198;SDS011;27868;45.184;5.786;2023-02-18T15:47:34;6.57;;;2.33;;
42198;SDS011;27868;45.184;5.786;2023-02-18T15:50:26;10.07;;;3.42;;
42198;SDS011;27868;45.184;5.786;2023-02-18T15:53:21;7.20;;;2.40;;
42198;SDS011;27868;45.184;5.786;2023-02-18T15:56:13;5.20;;;2.35;;
42198;SDS011;27868;45.184;5.786;2023-02-18T15:59:52;6.32;;;3.03;;
42198;SDS011;27868;45.184;5.786;2023-02-18T16:02:15;4.80;;;2.25;;
42198;SDS011;27868;45.184;5.786;2023-02-18T16:05:11;4.63;;;2.38;;
42198;SDS011;27868;45.184;5.786;2023-02-18T16:07:58;25.65;;;10.88;;
42198;SDS011;27868;45.184;5.786;2023-02-18T16:10:46;17.25;;;9.35;;
42198;SDS011;27868;45.184;5.786;2023-02-18T16:13:53;10.45;;;4.20;;
42198;SDS011;27868;45.184;5.786;2023-02-18T16:16:37;8.35;;;3.63;;
42198;SDS011;27868;45.184;5.786;2023-02-18T16:19:23;6.68;;;2.90;;
42198;SDS011;27868;45.184;5.786;2023-02-18T16:22:17;4.40;;;2.75;;
42198;SDS011;27868;45.184;5.786;2023-02-18T16:25:16;4.45;;;2.80;;
42198;SDS011;27868;45.184;5.786;2023-02-18T16:31:06;10.73;;;3.90;;
42198;SDS011;27868;45.184;5.786;2023-02-18T16:33:51;6.93;;;2.80;;
42198;SDS011;27868;45.184;5.786;2023-02-18T16:36:36;7.50;;;2.88;;
42198;SDS011;27868;45.184;5.786;2023-02-18T16:39:20;7.20;;;2.78;;
42198;SDS011;27868;45.184;5.786;2023-02-18T16:42:11;4.50;;;2.88;;
42198;SDS011;27868;45.184;5.786;2023-02-18T16:44:57;20.75;;;3.30;;
42198;SDS011;27868;45.184;5.786;2023-02-18T16:47:43;6.75;;;2.90;;
42198;SDS011;27868;45.184;5.786;2023-02-18T16:50:30;7.20;;;2.80;;
42198;SDS011;27868;45.184;5.786;2023-02-18T16:53:17;7.55;;;3.10;;
42198;SDS011;27868;45.184;5.786;2023-02-18T16:56:03;7.15;;;2.65;;
42198;SDS011;27868;45.184;5.786;2023-02-18T16:58:48;9.27;;;2.80;;
42198;SDS011;27868;45.184;5.786;2023-02-18T17:01:35;7.70;;;3.38;;
42198;SDS011;27868;45.184;5.786;2023-02-18T17:04:24;10.77;;;6.35;;
42198;SDS011;27868;45.184;5.786;2023-02-18T17:07:14;11.13;;;4.90;;
42198;SDS011;27868;45.184;5.786;2023-02-18T17:12:46;8.77;;;4.07;;
42198;SDS011;27868;45.184;5.786;2023-02-18T17:15:33;17.05;;;4.88;;
42198;SDS011;27868;45.184;5.786;2023-02-18T17:18:20;13.13;;;3.58;;
42198;SDS011;27868;45.184;5.786;2023-02-18T17:42:42;5.22;;;2.63;;
42198;SDS011;27868;45.184;5.786;2023-02-18T17:50:51;8.48;;;4.10;;
42198;SDS011;27868;45.184;5.786;2023-02-18T17:53:37;11.02;;;4.63;;
42198;SDS011;27868;45.184;5.786;2023-02-18T17:56:22;15.23;;;5.05;;
42198;SDS011;27868;45.184;5.786;2023-02-18T17:59:07;8.05;;;3.90;;
42198;SDS011;27868;45.184;5.786;2023-02-18T18:01:52;8.45;;;3.78;;
42198;SDS011;27868;45.184;5.786;2023-02-18T18:04:36;10.63;;;4.25;;
42198;SDS011;27868;45.184;5.786;2023-02-18T18:07:21;10.10;;;3.80;;
42198;SDS011;27868;45.184;5.786;2023-02-18T18:10:05;9.82;;;4.72;;
42198;SDS011;27868;45.184;5.786;2023-02-18T18:12:52;7.25;;;3.90;;
42198;SDS011;27868;45.184;5.786;2023-02-18T18:18:23;8.00;;;3.58;;
42198;SDS011;27868;45.184;5.786;2023-02-18T18:21:17;6.82;;;3.58;;
42198;SDS011;27868;45.184;5.786;2023-02-18T18:24:10;8.77;;;3.78;;
42198;SDS011;27868;45.184;5.786;2023-02-18T18:26:55;7.45;;;3.30;;
42198;SDS011;27868;45.184;5.786;2023-02-18T18:32:22;6.00;;;3.35;;
42198;SDS011;27868;45.184;5.786;2023-02-18T18:35:14;6.75;;;3.20;;
42198;SDS011;27868;45.184;5.786;2023-02-18T18:38:09;5.70;;;3.10;;
42198;SDS011;27868;45.184;5.786;2023-02-18T18:40:55;7.75;;;3.35;;
42198;SDS011;27868;45.184;5.786;2023-02-18T18:43:40;8.48;;;3.67;;
42198;SDS011;27868;45.184;5.786;2023-02-18T18:46:25;7.07;;;3.20;;
42198;SDS011;27868;45.184;5.786;2023-02-18T18:49:10;5.93;;;3.38;;
42198;SDS011;27868;45.184;5.786;2023-02-18T18:51:54;5.68;;;3.22;;
42198;SDS011;27868;45.184;5.786;2023-02-18T18:54:39;7.47;;;3.47;;
42198;SDS011;27868;45.184;5.786;2023-02-18T18:57:24;7.75;;;3.15;;
42198;SDS011;27868;45.184;5.786;2023-02-18T19:00:10;9.15;;;3.90;;
42198;SDS011;27868;45.184;5.786;2023-02-18T19:02:55;5.30;;;3.28;;
42198;SDS011;27868;45.184;5.786;2023-02-18T19:05:40;7.53;;;3.40;;
42198;SDS011;27868;45.184;5.786;2023-02-18T19:08:26;7.60;;;4.03;;
42198;SDS011;27868;45.184;5.786;2023-02-18T19:11:12;10.88;;;4.32;;
42198;SDS011;27868;45.184;5.786;2023-02-18T19:13:59;8.52;;;3.67;;
42198;SDS011;27868;45.184;5.786;2023-02-18T19:16:43;5.03;;;3.63;;
42198;SDS011;27868;45.184;5.786;2023-02-18T19:19:29;6.32;;;3.80;;
42198;SDS011;27868;45.184;5.786;2023-02-18T19:22:14;7.18;;;3.58;;
42198;SDS011;27868;45.184;5.786;2023-02-18T19:24:59;11.70;;;7.07;;
42198;SDS011;27868;45.184;5.786;2023-02-18T19:27:44;14.98;;;8.90;;
42198;SDS011;27868;45.184;5.786;2023-02-18T19:30:31;13.43;;;8.18;;
42198;SDS011;27868;45.184;5.786;2023-02-18T19:33:18;20.33;;;10.20;;